createdAt,value
2022-12-08T00:04:29.142Z,0.83
2022-12-08T00:09:39.500Z,0.83
2022-12-08T00:14:45.805Z,0.82
2022-12-08T00:19:50.747Z,0.81
2022-12-08T00:24:53.955Z,0.80
2022-12-08T00:29:56.999Z,0.77
2022-12-08T00:35:00.299Z,0.75
2022-12-08T00:40:04.612Z,0.75
2022-12-08T00:45:08.323Z,0.76
2022-12-08T00:50:11.836Z,0.77
2022-12-08T00:55:15.047Z,0.78
2022-12-08T01:00:18.355Z,0.79
2022-12-08T01:05:21.563Z,0.79
2022-12-08T01:10:25.184Z,0.79
2022-12-08T01:15:28.388Z,0.79
2022-12-08T01:20:31.706Z,0.79
2022-12-08T01:25:35.672Z,0.80
2022-12-08T01:30:40.095Z,0.81
2022-12-08T01:35:43.269Z,0.82
2022-12-08T01:40:46.581Z,0.82
2022-12-08T01:45:49.734Z,0.83
2022-12-08T01:50:55.896Z,0.83
2022-12-08T01:56:07.264Z,0.83
2022-12-08T02:01:11.662Z,0.84
2022-12-08T02:06:16.442Z,0.85
2022-12-08T02:11:19.754Z,0.85
2022-12-08T02:16:32.120Z,0.85
2022-12-08T02:21:42.349Z,0.83
2022-12-08T02:27:29.748Z,0.78
2022-12-08T02:33:07.203Z,0.68
2022-12-08T02:38:32.635Z,0.54
2022-12-08T02:43:43.112Z,0.41
2022-12-08T02:48:47.034Z,0.34
2022-12-08T02:53:50.727Z,0.30
2022-12-08T02:59:33.183Z,0.28
2022-12-08T03:04:48.900Z,0.24
2022-12-08T03:10:03.596Z,0.18
2022-12-08T03:15:11.622Z,0.10
2022-12-08T03:20:21.033Z,0.01
2022-12-08T03:25:28.031Z,-0.08
2022-12-08T03:30:36.214Z,-0.16
2022-12-08T03:35:41.758Z,-0.21
2022-12-08T03:41:06.122Z,-0.27
2022-12-08T03:46:09.344Z,-0.32
2022-12-08T03:51:13.151Z,-0.29
2022-12-08T03:56:26.939Z,-0.27
2022-12-08T04:01:30.584Z,-0.29
2022-12-08T04:06:33.937Z,-0.30
2022-12-08T04:11:36.939Z,-0.27
2022-12-08T04:16:40.457Z,-0.22
2022-12-08T04:21:43.766Z,-0.14
2022-12-08T04:26:47.178Z,-0.04
2022-12-08T04:31:51.028Z,0.09
2022-12-08T04:36:54.315Z,0.21
2022-12-08T04:41:57.519Z,0.31
2022-12-08T04:47:00.809Z,0.39
2022-12-08T04:52:03.933Z,0.47
2022-12-08T04:57:07.040Z,0.52
2022-12-08T05:02:10.507Z,0.56
2022-12-08T05:07:13.866Z,0.60
2022-12-08T05:12:17.279Z,0.64
2022-12-08T05:17:21.510Z,0.66
2022-12-08T05:22:24.616Z,0.69
2022-12-08T05:27:28.235Z,0.72
2022-12-08T05:32:32.056Z,0.74
2022-12-08T05:37:35.125Z,0.76
2022-12-08T05:42:38.371Z,0.77
2022-12-08T05:47:41.575Z,0.79
2022-12-08T05:52:44.803Z,0.80
2022-12-08T05:57:47.891Z,0.80
2022-12-08T06:02:51.256Z,0.81
2022-12-08T06:07:54.993Z,0.81
2022-12-08T06:12:58.331Z,0.81
2022-12-08T06:18:01.437Z,0.82
2022-12-08T06:23:05.055Z,0.81
2022-12-08T06:28:08.775Z,0.79
2022-12-08T06:33:11.981Z,0.79
2022-12-08T06:38:15.301Z,0.78
2022-12-08T06:43:19.216Z,0.77
2022-12-08T06:48:22.527Z,0.77
2022-12-08T06:53:25.631Z,0.74
2022-12-08T06:58:29.152Z,0.71
2022-12-08T07:03:32.462Z,0.69
2022-12-08T07:08:35.509Z,0.69
2022-12-08T07:13:39.087Z,0.72
2022-12-08T07:18:43.313Z,0.77
2022-12-08T07:23:52.727Z,0.80
2022-12-08T07:29:01.146Z,0.85
2022-12-08T07:34:05.132Z,0.90
2022-12-08T07:39:09.865Z,0.96
2022-12-08T07:44:13.071Z,1.00
2022-12-08T07:49:16.278Z,1.05
2022-12-08T07:54:19.487Z,1.06
2022-12-08T07:59:22.910Z,1.05
2022-12-08T08:04:27.270Z,1.08
2022-12-08T08:09:30.406Z,1.09
2022-12-08T08:14:34.059Z,1.14
2022-12-08T08:19:37.165Z,1.20
2022-12-08T08:24:44.693Z,1.30
2022-12-08T08:29:48.410Z,1.50
2022-12-08T08:34:52.423Z,1.60
2022-12-08T08:39:55.630Z,1.58
2022-12-08T08:44:58.733Z,1.56
2022-12-08T08:50:02.520Z,1.65
2022-12-08T08:55:07.096Z,1.76
2022-12-08T09:00:11.159Z,1.96
2022-12-08T09:05:14.739Z,2.13
2022-12-08T09:10:18.356Z,2.46
2022-12-08T09:15:22.076Z,2.89
2022-12-08T09:20:25.591Z,2.75
2022-12-08T09:25:29.208Z,2.81
2022-12-08T09:30:32.415Z,4.01
2022-12-08T09:35:35.949Z,4.80
2022-12-08T09:40:44.055Z,4.48
2022-12-08T09:45:48.745Z,3.90
2022-12-08T09:50:57.489Z,3.38
2022-12-08T09:56:36.010Z,2.84
2022-12-08T10:01:42.237Z,2.33
2022-12-08T10:06:55.289Z,1.97
2022-12-08T10:12:23.890Z,1.73
2022-12-08T10:17:34.673Z,1.60
2022-12-08T10:22:44.288Z,1.51
2022-12-08T10:27:54.457Z,1.47
2022-12-08T10:32:57.632Z,1.58
2022-12-08T10:38:04.148Z,1.78
2022-12-08T10:43:17.851Z,2.02
2022-12-08T10:48:31.440Z,2.22
2022-12-08T10:53:45.914Z,2.37
2022-12-08T10:58:49.080Z,2.34
2022-12-08T11:03:56.791Z,2.24
2022-12-08T11:09:20.275Z,2.12
2022-12-08T11:14:23.585Z,2.03
2022-12-08T11:19:30.668Z,2.01
2022-12-08T11:24:37.656Z,2.07
2022-12-08T11:29:41.504Z,2.17
2022-12-08T11:34:50.814Z,2.20
2022-12-08T11:39:58.014Z,2.16
2022-12-08T11:45:13.064Z,2.10
2022-12-08T11:50:28.948Z,2.08
2022-12-08T11:55:52.635Z,2.09
2022-12-08T12:00:55.739Z,2.14
2022-12-08T12:06:18.364Z,2.15
2022-12-08T12:11:58.171Z,2.07
2022-12-08T12:17:07.940Z,1.99
2022-12-08T12:22:18.120Z,1.96
2022-12-08T12:27:41.684Z,1.94
2022-12-08T12:32:47.145Z,1.91
2022-12-08T12:37:50.559Z,1.90
2022-12-08T12:42:56.532Z,1.83
2022-12-08T12:48:00.251Z,1.72
2022-12-08T12:53:26.503Z,1.66
2022-12-08T12:58:32.515Z,1.56
2022-12-08T13:03:56.474Z,1.44
2022-12-08T13:09:00.695Z,1.30
2022-12-08T13:14:05.346Z,1.15
2022-12-08T13:19:16.541Z,0.98
2022-12-08T13:24:25.582Z,0.85
2022-12-08T13:29:29.811Z,0.75
2022-12-08T13:34:47.252Z,0.69
2022-12-08T13:39:52.712Z,0.66
2022-12-08T13:45:28.016Z,0.64
2022-12-08T14:01:29.817Z,0.63
2022-12-08T14:06:38.448Z,0.64
2022-12-08T14:12:04.293Z,0.65
2022-12-08T14:17:16.820Z,0.69
2022-12-08T14:22:20.229Z,0.73
2022-12-08T14:27:26.412Z,0.78
2022-12-08T14:32:31.669Z,0.84
2022-12-08T14:37:43.760Z,0.91
2022-12-08T14:42:51.187Z,0.99
2022-12-08T14:47:54.295Z,1.06
2022-12-08T14:52:57.705Z,1.14
2022-12-08T14:58:01.535Z,1.21
2022-12-08T15:03:08.065Z,1.26
2022-12-08T15:08:13.534Z,1.31
2022-12-08T15:13:17.909Z,1.35
2022-12-08T15:18:41.568Z,1.40
2022-12-08T15:23:46.445Z,1.42
2022-12-08T15:28:50.471Z,1.45
2022-12-08T15:33:53.575Z,1.47
2022-12-08T15:38:56.883Z,1.49
2022-12-08T15:44:00.092Z,1.51
2022-12-08T15:49:03.711Z,1.53
2022-12-08T15:54:06.916Z,1.55
2022-12-08T15:59:17.509Z,1.57
2022-12-08T16:05:25.221Z,1.58
2022-12-08T16:09:46.202Z,1.58
2022-12-08T16:20:18.527Z,1.61
2022-12-08T16:25:23.618Z,1.61
2022-12-08T16:30:30.779Z,1.62
2022-12-08T16:35:35.034Z,1.62
2022-12-08T16:40:58.635Z,1.64
2022-12-08T16:46:03.110Z,1.65
2022-12-08T16:51:11.101Z,1.68
2022-12-08T16:56:20.545Z,1.69
2022-12-08T17:01:25.771Z,1.70
2022-12-08T17:06:29.624Z,1.71
2022-12-08T17:11:39.149Z,1.71
2022-12-08T17:16:46.063Z,1.72
2022-12-08T17:21:49.794Z,1.74
2022-12-08T17:26:55.913Z,1.74
2022-12-08T17:32:00.029Z,1.74
2022-12-08T17:37:04.124Z,1.74
2022-12-08T17:42:07.639Z,1.76
2022-12-08T17:47:11.157Z,1.78
2022-12-08T17:52:15.436Z,1.80
2022-12-08T17:57:18.698Z,1.81
2022-12-08T18:02:22.660Z,1.83
2022-12-08T18:07:26.043Z,1.84
2022-12-08T18:12:29.350Z,1.85
2022-12-08T18:17:32.553Z,1.86
2022-12-08T18:22:36.066Z,1.86
2022-12-08T18:27:43.145Z,1.87
2022-12-08T18:32:47.095Z,1.88
2022-12-08T18:37:51.128Z,1.91
2022-12-08T18:42:54.438Z,1.92
2022-12-08T18:47:57.643Z,1.93
2022-12-08T18:53:00.852Z,1.94
2022-12-08T18:58:04.592Z,1.95
2022-12-08T19:03:09.263Z,1.97
2022-12-08T19:08:15.388Z,1.98
2022-12-08T19:13:19.226Z,2.01
2022-12-08T19:18:23.158Z,2.03
2022-12-08T19:23:27.095Z,2.06
2022-12-08T19:28:33.202Z,2.08
2022-12-08T19:33:37.971Z,2.10
2022-12-08T19:39:00.771Z,2.11
2022-12-08T19:44:20.247Z,2.12
2022-12-08T19:49:24.588Z,2.12
2022-12-08T19:54:28.296Z,2.13
2022-12-08T19:59:31.913Z,2.15
2022-12-08T20:04:35.566Z,2.17
2022-12-08T20:09:39.057Z,2.18
2022-12-08T20:14:45.827Z,2.21
2022-12-08T20:19:49.870Z,2.23
2022-12-08T20:24:59.450Z,2.26
2022-12-08T20:30:16.812Z,2.30
2022-12-08T20:35:22.233Z,2.33
2022-12-08T20:40:26.254Z,2.38
2022-12-08T20:45:29.660Z,2.40
2022-12-08T20:50:33.078Z,2.39
2022-12-08T20:55:38.222Z,2.36
2022-12-08T21:00:42.339Z,2.31
2022-12-08T21:05:50.827Z,2.22
2022-12-08T21:10:56.736Z,2.12
2022-12-08T21:16:00.302Z,2.00
2022-12-08T21:21:06.637Z,1.85
2022-12-08T21:26:18.711Z,1.73
2022-12-08T21:31:22.533Z,1.61
2022-12-08T21:36:26.270Z,1.52
2022-12-08T21:41:49.338Z,1.45
2022-12-08T21:46:52.686Z,1.37
2022-12-08T21:51:56.919Z,1.31
2022-12-08T21:57:00.351Z,1.26
2022-12-08T22:02:03.884Z,1.24
2022-12-08T22:07:08.176Z,1.22
2022-12-08T22:12:12.356Z,1.21
2022-12-08T22:17:16.749Z,1.21
2022-12-08T22:22:20.100Z,1.21
2022-12-08T22:27:23.307Z,1.19
2022-12-08T22:32:26.806Z,1.17
2022-12-08T22:37:30.262Z,1.16
2022-12-08T22:42:33.912Z,1.16
2022-12-08T22:47:37.366Z,1.16
2022-12-08T22:52:40.552Z,1.16
2022-12-08T22:57:43.680Z,1.16
2022-12-08T23:02:47.151Z,1.16
2022-12-08T23:07:51.703Z,1.16
2022-12-08T23:12:59.225Z,1.16
2022-12-08T23:18:06.542Z,1.18
2022-12-08T23:23:09.838Z,1.18
2022-12-08T23:28:14.946Z,1.19
2022-12-08T23:33:18.379Z,1.19
2022-12-08T23:38:21.739Z,1.18
2022-12-08T23:43:25.327Z,1.19
2022-12-08T23:48:29.314Z,1.17
2022-12-08T23:53:33.718Z,1.16
2022-12-08T23:58:37.532Z,1.16
